Terminal Aerodrome Forecast
Issued by NWS

Home | Current Version | Previous Version | Text Only | Print | Product List | Glossary On
Versions: 1 2 3 4 5 6 7 8 9 10 11 12 13 14 15 16 17
258
FTUS41 KPBZ 260230 AAA
TAFLBE
TAF AMD
KLBE 260230Z 2602/2624 22008KT P6SM SCT250
      TEMPO 2605/2606 5SM -SHRA BKN035
     FM260700 25006KT 5SM BR SCT015
     FM261400 28005KT P6SM SCT020=

USA.gov is the U.S. government's official web portal to all federal, state and local government web resources and services.